Time;durP1;ratioP1;P1;durP2;ratioP2;P2;SDS_P1;SDS_P2;PMS_P1;PMS_P2;Temp;Humidity;BMP_temperature;BMP_pressure;BME280_temperature;BME280_humidity;BME280_pressure;Samples;Min_cycle;Max_cycle;Signal;HPM_P1;HPM_P2
2021/09/03 00:01:04;;;;;;;10.23;6.73;;;;;;;11.94;100.00;101793.25;4993796;28;20221;-74
2021/09/03 00:03:32;;;;;;;7.30;6.57;;;;;;;11.92;100.00;101789.97;4993562;28;20181;-74
2021/09/03 00:06:03;;;;;;;7.10;6.23;;;;;;;11.90;100.00;101783.09;4978369;28;20247;-73
2021/09/03 00:08:28;;;;;;;8.03;6.37;;;;;;;11.85;100.00;101782.22;5014668;28;20217;-74
2021/09/03 00:10:54;;;;;;;7.27;6.23;;;;;;;11.89;100.00;101783.38;4995426;28;20215;-74
2021/09/03 00:13:22;;;;;;;6.80;6.20;;;;;;;11.83;100.00;101777.06;5019554;28;20413;-75
2021/09/03 00:15:48;;;;;;;8.93;5.97;;;;;;;11.82;100.00;101780.03;5017534;28;20216;-73
2021/09/03 00:18:13;;;;;;;7.47;6.33;;;;;;;11.77;100.00;101780.75;5017903;28;20214;-74
2021/09/03 00:20:43;;;;;;;6.50;5.80;;;;;;;11.68;100.00;101781.47;5014897;28;20208;-74
2021/09/03 00:23:09;;;;;;;9.93;6.07;;;;;;;11.59;100.00;101774.78;4977924;28;20192;-74
2021/09/03 00:25:37;;;;;;;8.23;6.33;;;;;;;11.65;100.00;101768.38;5010005;28;20582;-74
2021/09/03 00:28:02;;;;;;;7.37;6.00;;;;;;;11.65;100.00;101768.38;4992935;28;20325;-74
2021/09/03 00:30:28;;;;;;;8.20;5.90;;;;;;;11.61;100.00;101767.19;5009699;28;20661;-74
2021/09/03 00:32:56;;;;;;;6.63;6.00;;;;;;;11.58;100.00;101765.81;4993735;28;20189;-74
2021/09/03 00:35:21;;;;;;;11.47;6.60;;;;;;;11.48;100.00;101758.59;4993119;28;20544;-75
2021/09/03 00:37:47;;;;;;;10.73;6.07;;;;;;;11.54;100.00;101747.53;4977071;28;20752;-75
2021/09/03 00:40:13;;;;;;;8.00;6.33;;;;;;;11.58;100.00;101749.50;5022205;28;20196;-74
2021/09/03 00:42:41;;;;;;;8.87;6.60;;;;;;;11.74;100.00;101753.22;5003126;28;20272;-74
2021/09/03 00:45:09;;;;;;;7.73;6.17;;;;;;;11.77;100.00;101752.72;4993429;28;20189;-74
2021/09/03 00:47:35;;;;;;;7.67;6.27;;;;;;;11.71;100.00;101753.75;5009941;28;20750;-75
2021/09/03 00:50:01;;;;;;;8.47;6.00;;;;;;;11.59;100.00;101750.31;4988215;28;20316;-74
2021/09/03 00:52:26;;;;;;;7.90;6.03;;;;;;;11.62;100.00;101749.81;4973898;28;20227;-74
2021/09/03 00:54:52;;;;;;;6.97;6.10;;;;;;;11.60;100.00;101751.97;4993571;28;20208;-75
2021/09/03 00:57:17;;;;;;;6.60;6.00;;;;;;;11.51;100.00;101748.03;4976667;28;20239;-74
2021/09/03 00:59:45;;;;;;;9.67;6.10;;;;;;;11.43;100.00;101742.16;4961443;28;20173;-73
2021/09/03 01:02:11;;;;;;;11.10;7.07;;;;;;;11.44;100.00;101747.38;5009339;28;20275;-75
2021/09/03 01:04:40;;;;;;;15.03;7.30;;;;;;;11.42;100.00;101744.06;4993491;28;20611;-75
2021/09/03 01:07:08;;;;;;;25.20;8.10;;;;;;;11.29;100.00;101736.25;4977716;28;20772;-74
2021/09/03 01:09:34;;;;;;;23.30;7.80;;;;;;;11.25;100.00;101735.13;4982222;28;20185;-73
2021/09/03 01:12:01;;;;;;;18.33;8.10;;;;;;;11.14;100.00;101733.31;5017154;28;20240;-73
2021/09/03 01:14:30;;;;;;;21.37;7.97;;;;;;;11.06;100.00;101727.50;4963819;28;20565;-72
2021/09/03 01:16:58;;;;;;;12.80;8.70;;;;;;;11.00;100.00;101724.94;5009440;28;20597;-73
2021/09/03 01:19:23;;;;;;;9.77;8.00;;;;;;;10.91;100.00;101724.53;4976896;28;20213;-73
2021/09/03 01:21:54;;;;;;;9.87;8.10;;;;;;;11.02;100.00;101720.06;5008706;28;20224;-74
2021/09/03 01:24:20;;;;;;;11.10;8.07;;;;;;;11.04;100.00;101723.38;4980806;28;20188;-73
2021/09/03 01:26:45;;;;;;;10.93;8.53;;;;;;;11.09;100.00;101729.72;4995914;28;20217;-73
2021/09/03 01:29:16;;;;;;;11.50;8.50;;;;;;;11.15;100.00;101720.53;5028958;28;20296;-75
2021/09/03 01:31:41;;;;;;;13.67;8.13;;;;;;;11.24;100.00;101719.84;5012613;28;20303;-74
2021/09/03 01:34:07;;;;;;;10.37;7.70;;;;;;;11.22;100.00;101721.19;4996322;28;20191;-74
2021/09/03 01:36:33;;;;;;;13.40;7.83;;;;;;;11.19;100.00;101717.09;5009411;28;20966;-73
2021/09/03 01:39:02;;;;;;;12.57;8.40;;;;;;;11.12;100.00;101721.06;5000182;28;20196;-73
2021/09/03 01:41:31;;;;;;;10.23;7.90;;;;;;;11.22;100.00;101711.13;4997469;28;20209;-74
2021/09/03 01:43:59;;;;;;;10.00;7.73;;;;;;;11.15;100.00;101710.50;5012012;28;20187;-73
2021/09/03 01:46:25;;;;;;;9.43;7.60;;;;;;;11.13;100.00;101708.28;5012909;28;20224;-73
2021/09/03 01:48:50;;;;;;;8.80;7.87;;;;;;;11.04;100.00;101717.94;4964080;28;20205;-73
2021/09/03 01:51:16;;;;;;;8.60;7.70;;;;;;;10.88;100.00;101708.72;4996103;28;20741;-74
2021/09/03 01:53:45;;;;;;;10.33;8.03;;;;;;;10.92;100.00;101709.06;5029761;28;20204;-73
2021/09/03 01:56:11;;;;;;;9.57;7.63;;;;;;;10.81;100.00;101709.97;5013937;28;20221;-73
2021/09/03 01:58:36;;;;;;;12.57;8.33;;;;;;;10.79;100.00;101715.66;4980130;28;20744;-74
2021/09/03 02:01:04;;;;;;;9.13;8.00;;;;;;;10.72;100.00;101697.06;4980275;28;20224;-74
2021/09/03 02:03:29;;;;;;;8.73;7.83;;;;;;;10.54;100.00;101695.38;4997072;28;20215;-74
2021/09/03 02:05:56;;;;;;;9.50;7.87;;;;;;;10.54;100.00;101692.69;4995668;28;20294;-74
2021/09/03 02:08:24;;;;;;;9.47;8.43;;;;;;;10.67;100.00;101695.06;4980015;28;20220;-74
2021/09/03 02:10:52;;;;;;;9.77;8.33;;;;;;;10.68;100.00;101690.44;5025769;28;20264;-73
2021/09/03 02:13:22;;;;;;;8.73;7.60;;;;;;;10.70;100.00;101694.56;5012206;28;20181;-73
2021/09/03 02:15:50;;;;;;;9.40;8.37;;;;;;;10.73;100.00;101688.63;4979669;28;20223;-74
2021/09/03 02:18:16;;;;;;;9.00;8.10;;;;;;;10.62;100.00;101683.28;4975823;28;20201;-73
2021/09/03 02:20:41;;;;;;;9.57;7.50;;;;;;;10.64;100.00;101690.16;4991971;28;20217;-74
2021/09/03 02:23:07;;;;;;;8.90;7.10;;;;;;;10.79;100.00;101679.50;5010017;28;20181;-75
2021/09/03 02:25:35;;;;;;;7.77;6.97;;;;;;;10.69;100.00;101682.03;4978434;28;20244;-75
2021/09/03 02:28:05;;;;;;;7.90;6.10;;;;;;;10.66;100.00;101677.13;4995333;28;20224;-74
2021/09/03 02:30:36;;;;;;;9.03;6.20;;;;;;;10.82;100.00;101676.28;4996001;28;20221;-75
2021/09/03 02:33:02;;;;;;;8.07;6.10;;;;;;;10.93;100.00;101672.63;4981006;28;20189;-76
2021/09/03 02:35:28;;;;;;;9.30;6.20;;;;;;;10.90;100.00;101673.16;4976116;28;20313;-73
2021/09/03 02:37:57;;;;;;;8.80;5.80;;;;;;;10.93;100.00;101672.63;5011116;28;20279;-75
2021/09/03 02:40:24;;;;;;;6.47;5.33;;;;;;;10.90;100.00;101673.16;5008532;28;20289;-74
2021/09/03 02:42:50;;;;;;;7.20;5.50;;;;;;;11.01;100.00;101674.94;5018147;28;20188;-74
2021/09/03 02:45:18;;;;;;;6.10;4.87;;;;;;;11.03;100.00;101672.81;4978375;28;20236;-74
2021/09/03 02:47:46;;;;;;;7.40;5.10;;;;;;;10.93;100.00;101673.47;5011201;28;20223;-74
2021/09/03 02:50:11;;;;;;;5.70;5.10;;;;;;;10.82;100.00;101670.84;4994415;28;20188;-75
2021/09/03 02:52:39;;;;;;;7.70;5.57;;;;;;;10.68;100.00;101674.13;4963900;28;20173;-73
2021/09/03 02:55:05;;;;;;;8.17;6.30;;;;;;;10.95;100.00;101667.78;4994701;28;20193;-74
2021/09/03 02:57:31;;;;;;;7.87;6.07;;;;;;;10.97;100.00;101673.78;4991158;28;20221;-74
2021/09/03 02:59:56;;;;;;;9.97;6.03;;;;;;;10.81;100.00;101669.22;4974616;28;20194;-75
2021/09/03 03:02:22;;;;;;;7.60;5.57;;;;;;;10.86;100.00;101661.09;4999136;28;20217;-73
2021/09/03 03:04:47;;;;;;;9.67;7.77;;;;;;;10.84;100.00;101655.09;4978552;28;20181;-73
2021/09/03 03:07:13;;;;;;;13.07;7.50;;;;;;;10.73;100.00;101666.88;4978143;28;20371;-73
2021/09/03 03:09:43;;;;;;;15.90;8.00;;;;;;;10.67;100.00;101662.47;5001835;28;20732;-74
2021/09/03 03:12:10;;;;;;;22.33;8.10;;;;;;;10.53;100.00;101658.44;5008528;28;20713;-75
2021/09/03 03:14:36;;;;;;;23.80;8.07;;;;;;;10.41;100.00;101656.88;4978348;28;20181;-74
2021/09/03 03:17:06;;;;;;;18.90;8.03;;;;;;;10.29;100.00;101644.44;5009868;28;20362;-73
2021/09/03 03:19:32;;;;;;;11.03;7.80;;;;;;;10.48;100.00;101652.91;4994322;28;20614;-74
2021/09/03 03:22:00;;;;;;;9.10;8.20;;;;;;;10.63;100.00;101649.63;5010627;28;20221;-74
2021/09/03 03:24:25;;;;;;;9.47;7.67;;;;;;;10.60;100.00;101645.50;4977852;28;20617;-73
2021/09/03 03:26:53;;;;;;;11.97;8.00;;;;;;;10.61;100.00;101630.03;5010214;28;20271;-74
2021/09/03 03:29:26;;;;;;;17.00;8.00;;;;;;;10.41;100.00;101635.97;4993834;28;20694;-73
2021/09/03 03:31:54;;;;;;;9.63;8.10;;;;;;;10.32;100.00;101624.94;4994788;28;20227;-75
2021/09/03 03:34:19;;;;;;;9.90;7.90;;;;;;;10.68;100.00;101619.78;4994232;28;20185;-75
2021/09/03 03:36:45;;;;;;;9.53;8.33;;;;;;;10.78;100.00;101615.34;4993256;28;20251;-73
2021/09/03 03:39:13;;;;;;;9.40;8.40;;;;;;;10.77;100.00;101621.88;4983402;28;20204;-74
2021/09/03 03:41:39;;;;;;;9.60;8.60;;;;;;;10.74;100.00;101615.00;5010271;28;20212;-72
2021/09/03 03:44:04;;;;;;;11.00;8.40;;;;;;;10.77;100.00;101602.84;5010390;28;20754;-73
2021/09/03 03:46:32;;;;;;;9.00;8.10;;;;;;;10.76;100.00;101612.06;4993715;28;20247;-74
2021/09/03 03:49:05;;;;;;;8.80;7.90;;;;;;;10.71;100.00;101609.25;5009615;28;20228;-74
2021/09/03 03:51:30;;;;;;;8.33;7.53;;;;;;;10.50;100.00;101612.75;5009600;28;20221;-74
2021/09/03 03:53:56;;;;;;;7.80;7.10;;;;;;;10.57;100.00;101607.16;5010113;28;20192;-75
2021/09/03 03:56:24;;;;;;;8.50;7.70;;;;;;;10.50;100.00;101606.50;5009698;28;20730;-73
2021/09/03 03:58:52;;;;;;;7.80;7.00;;;;;;;10.57;100.00;101602.53;4982639;28;20208;-73
2021/09/03 04:01:18;;;;;;;7.77;7.03;;;;;;;10.53;100.00;101606.00;4974561;28;20221;-74
2021/09/03 04:03:44;;;;;;;7.37;6.77;;;;;;;10.51;100.00;101591.84;4975246;28;20275;-74
2021/09/03 04:06:10;;;;;;;7.63;6.83;;;;;;;10.55;100.00;101604.69;5004834;28;20227;-74
2021/09/03 04:08:38;;;;;;;7.30;6.63;;;;;;;10.62;100.00;101599.06;5019988;28;20211;-75
2021/09/03 04:11:05;;;;;;;6.87;6.17;;;;;;;10.69;100.00;101592.38;4980196;28;20216;-74
2021/09/03 04:13:36;;;;;;;7.13;6.40;;;;;;;10.51;100.00;101600.81;4996986;28;20255;-74
2021/09/03 04:16:01;;;;;;;6.50;5.90;;;;;;;10.44;100.00;101597.44;5015007;28;20224;-74
2021/09/03 04:18:27;;;;;;;7.00;6.40;;;;;;;10.60;100.00;101595.78;5011121;28;20192;-73
2021/09/03 04:20:52;;;;;;;6.33;5.77;;;;;;;10.56;100.00;101592.72;5009815;28;20577;-74
2021/09/03 04:23:18;;;;;;;7.00;6.30;;;;;;;10.51;100.00;101592.69;4994227;28;20299;-74
2021/09/03 04:25:44;;;;;;;6.70;6.00;;;;;;;10.56;100.00;101578.34;5025991;28;20244;-73
2021/09/03 04:28:12;;;;;;;6.63;5.90;;;;;;;10.46;100.00;101589.06;4977344;28;20698;-73
2021/09/03 04:30:38;;;;;;;6.60;5.97;;;;;;;10.41;100.00;101589.78;4994182;28;20220;-74
2021/09/03 04:33:04;;;;;;;7.33;5.63;;;;;;;10.24;100.00;101585.47;5010043;28;20180;-75
2021/09/03 04:35:29;;;;;;;6.67;6.07;;;;;;;10.11;100.00;101574.09;5026616;28;20220;-72
2021/09/03 04:37:55;;;;;;;6.40;5.80;;;;;;;9.98;100.00;101587.97;4997879;28;20294;-73
2021/09/03 04:40:21;;;;;;;6.60;5.83;;;;;;;9.72;100.00;101585.84;4989282;28;20184;-74
2021/09/03 04:42:49;;;;;;;6.37;5.47;;;;;;;9.53;100.00;101586.31;4985817;28;20666;-74
2021/09/03 04:45:15;;;;;;;7.30;5.73;;;;;;;9.64;100.00;101588.97;5005894;28;20189;-73
2021/09/03 04:47:41;;;;;;;7.47;6.37;;;;;;;9.72;100.00;101580.44;4974048;28;20221;-75
2021/09/03 04:50:07;;;;;;;7.47;6.20;;;;;;;9.68;100.00;101579.28;4990180;28;20186;-75
2021/09/03 04:52:35;;;;;;;6.50;5.83;;;;;;;9.68;100.00;101584.69;4997263;28;20275;-72
2021/09/03 04:55:03;;;;;;;6.90;6.20;;;;;;;9.73;100.00;101592.94;5013237;28;20192;-74
2021/09/03 04:57:29;;;;;;;7.17;6.30;;;;;;;9.70;100.00;101587.16;5013348;28;20244;-75
2021/09/03 04:59:54;;;;;;;9.33;6.33;;;;;;;9.57;100.00;101587.47;5013906;28;20204;-74
2021/09/03 05:02:20;;;;;;;7.00;6.23;;;;;;;9.63;100.00;101590.06;4995548;28;20212;-75
2021/09/03 05:04:52;;;;;;;7.53;5.63;;;;;;;9.61;100.00;101592.19;5004430;28;20275;-75
2021/09/03 05:07:22;;;;;;;7.37;6.57;;;;;;;9.61;100.00;101591.34;5008739;28;20220;-74
2021/09/03 05:09:48;;;;;;;6.67;5.97;;;;;;;9.60;100.00;101590.53;5020373;28;20192;-74
2021/09/03 05:12:16;;;;;;;6.83;6.07;;;;;;;9.62;100.00;101588.38;5025235;28;20710;-74
2021/09/03 05:14:46;;;;;;;6.60;6.00;;;;;;;9.63;100.00;101581.91;4989732;28;20185;-74
2021/09/03 05:17:11;;;;;;;6.90;6.30;;;;;;;9.62;100.00;101585.69;5008668;28;20250;-75
2021/09/03 05:19:37;;;;;;;7.37;6.10;;;;;;;9.67;100.00;101585.78;5009915;28;20181;-73
2021/09/03 05:22:03;;;;;;;7.03;6.23;;;;;;;9.83;100.00;101581.44;4988226;28;20212;-74
2021/09/03 05:24:29;;;;;;;6.60;6.00;;;;;;;9.86;100.00;101576.34;5015515;28;20184;-74
2021/09/03 05:26:54;;;;;;;7.47;6.63;;;;;;;9.88;100.00;101584.25;5040967;28;20224;-76
2021/09/03 05:29:20;;;;;;;6.93;6.23;;;;;;;10.01;100.00;101582.06;5016219;28;20220;-75
2021/09/03 05:31:45;;;;;;;6.87;6.17;;;;;;;10.16;100.00;101587.75;4983604;28;20224;-77
2021/09/03 05:34:13;;;;;;;7.00;6.00;;;;;;;10.33;100.00;101591.28;5006238;28;20193;-73
2021/09/03 05:36:41;;;;;;;7.30;6.60;;;;;;;10.35;100.00;101586.41;5016494;28;20228;-73
2021/09/03 05:39:09;;;;;;;6.73;6.07;;;;;;;10.50;100.00;101576.63;5013124;28;20246;-74
2021/09/03 05:41:34;;;;;;;6.97;6.37;;;;;;;10.63;100.00;101574.38;4998609;28;20216;-74
2021/09/03 05:44:03;;;;;;;7.20;6.50;;;;;;;10.65;100.00;101569.50;5008577;28;20725;-74
2021/09/03 05:46:31;;;;;;;6.67;5.60;;;;;;;10.75;100.00;101577.81;4981518;28;20312;-73
2021/09/03 05:48:57;;;;;;;6.77;6.07;;;;;;;10.92;100.00;101579.41;5012782;28;20296;-75
2021/09/03 05:51:23;;;;;;;6.67;6.07;;;;;;;11.08;100.00;101580.41;5008379;28;20721;-75
2021/09/03 05:53:51;;;;;;;8.33;5.83;;;;;;;10.94;100.00;101581.88;5009286;28;20252;-74
2021/09/03 05:56:18;;;;;;;6.40;5.80;;;;;;;11.01;100.00;101582.50;5000345;28;20220;-73
2021/09/03 05:58:46;;;;;;;6.37;5.77;;;;;;;11.08;100.00;101583.13;4996004;28;20825;-73
2021/09/03 06:01:15;;;;;;;6.63;5.93;;;;;;;11.27;100.00;101577.13;4995683;28;20231;-73
2021/09/03 06:03:40;;;;;;;6.00;5.40;;;;;;;11.37;100.00;101572.63;5012709;28;20184;-73
2021/09/03 06:06:08;;;;;;;6.00;5.50;;;;;;;11.37;100.00;101572.63;5005047;28;20228;-75
2021/09/03 06:08:36;;;;;;;6.80;5.67;;;;;;;11.48;100.00;101566.22;5011420;28;20225;-74
2021/09/03 06:11:02;;;;;;;5.93;5.40;;;;;;;11.60;100.00;101566.91;5013669;28;20228;-74
2021/09/03 06:13:29;;;;;;;5.90;5.40;;;;;;;11.86;100.00;101563.38;5001259;28;20284;-73
2021/09/03 06:15:55;;;;;;;6.60;5.90;;;;;;;11.95;100.00;101568.09;5009315;28;20249;-76
2021/09/03 06:18:20;;;;;;;6.83;6.23;;;;;;;12.04;100.00;101570.06;4976058;28;20255;-74
2021/09/03 06:20:46;;;;;;;7.67;5.70;;;;;;;12.12;100.00;101572.31;4967944;28;20220;-74
2021/09/03 06:23:14;;;;;;;6.47;5.87;;;;;;;12.32;100.00;101567.03;4980011;28;20306;-75
2021/09/03 06:25:39;;;;;;;7.63;6.77;;;;;;;12.39;100.00;101567.63;4995375;28;20785;-76
2021/09/03 06:28:07;;;;;;;7.40;6.47;;;;;;;12.52;100.00;101564.44;4995724;28;20212;-75
2021/09/03 06:30:35;;;;;;;7.93;6.00;;;;;;;12.70;100.00;101560.19;4991935;28;20228;-75
2021/09/03 06:33:00;;;;;;;8.50;6.63;;;;;;;12.83;100.00;101558.94;4976329;28;20209;-75
2021/09/03 06:35:27;;;;;;;10.13;7.07;;;;;;;12.68;100.00;101547.09;4961970;28;20611;-74
2021/09/03 06:37:55;;;;;;;7.53;6.83;;;;;;;12.98;100.00;101551.63;4995512;28;20276;-75
2021/09/03 06:40:21;;;;;;;8.13;6.97;;;;;;;13.22;100.00;101548.22;5008574;28;20192;-75
2021/09/03 06:42:54;;;;;;;10.23;7.37;;;;;;;13.50;100.00;101551.28;5004067;28;20185;-75
2021/09/03 06:45:22;;;;;;;9.60;7.40;;;;;;;13.74;100.00;101552.44;4980464;28;20355;-75
2021/09/03 06:47:50;;;;;;;8.63;7.40;;;;;;;13.84;100.00;101544.25;4979120;28;20224;-74
2021/09/03 06:50:18;;;;;;;8.97;8.07;;;;;;;13.80;100.00;101545.06;4995393;28;20177;-75
2021/09/03 06:52:48;;;;;;;18.57;12.40;;;;;;;14.04;100.00;101549.75;4978191;28;20178;-75
2021/09/03 06:55:14;;;;;;;19.37;13.30;;;;;;;14.39;100.00;101545.09;4992426;28;20181;-75
2021/09/03 06:57:43;;;;;;;23.30;13.67;;;;;;;14.63;100.00;101549.69;4993548;28;20636;-77
2021/09/03 07:00:09;;;;;;;19.67;13.40;;;;;;;14.80;100.00;101539.28;4976333;28;20193;-74
2021/09/03 07:02:37;;;;;;;15.07;12.40;;;;;;;14.92;100.00;101545.22;4979921;28;20236;-75
2021/09/03 07:05:03;;;;;;;21.40;13.30;;;;;;;15.30;100.00;101537.16;5028643;28;20183;-75
2021/09/03 07:07:31;;;;;;;14.70;11.57;;;;;;;15.20;100.00;101543.53;5011392;28;20220;-75
2021/09/03 07:09:59;;;;;;;16.07;11.57;;;;;;;15.24;100.00;101539.13;4991517;28;20610;-76
2021/09/03 07:12:27;;;;;;;18.63;13.07;;;;;;;15.68;100.00;101546.25;4983188;28;20213;-77
2021/09/03 07:14:53;;;;;;;17.47;12.27;;;;;;;15.62;100.00;101550.13;5011922;28;20185;-76
2021/09/03 07:17:21;;;;;;;16.40;11.53;;;;;;;15.49;100.00;101548.03;4976196;28;20221;-76
2021/09/03 07:19:49;;;;;;;16.27;11.33;;;;;;;15.76;100.00;101544.84;4991429;28;20185;-76
2021/09/03 07:22:15;;;;;;;15.00;10.98;;;;;;;15.90;100.00;101546.66;4979420;28;20221;-76
2021/09/03 07:24:41;;;;;;;18.97;11.60;;;;;;;16.01;100.00;101543.53;5011348;28;20180;-77
2021/09/03 07:27:11;;;;;;;16.63;11.67;;;;;;;16.07;100.00;101556.09;4984294;28;20217;-76
2021/09/03 07:29:39;;;;;;;14.47;10.70;;;;;;;15.97;100.00;101545.22;4991700;28;20198;-76
2021/09/03 07:32:09;;;;;;;16.75;11.15;;;;;;;16.05;100.00;101544.59;5000405;28;20220;-75
2021/09/03 07:34:34;;;;;;;17.17;11.32;;;;;;;16.33;100.00;101541.09;4995443;28;20283;-76
2021/09/03 07:37:02;;;;;;;14.52;10.82;;;;;;;16.31;100.00;101541.38;5011844;28;20690;-79
2021/09/03 07:39:30;;;;;;;16.42;10.35;;;;;;;16.78;100.00;101536.78;5000952;28;20855;-76
2021/09/03 07:41:58;;;;;;;16.65;10.68;;;;;;;16.81;100.00;101538.97;4977344;28;20232;-76
2021/09/03 07:44:27;;;;;;;16.58;11.05;;;;;;;16.59;100.00;101532.31;4978737;28;20200;-75
2021/09/03 07:46:52;;;;;;;13.40;10.10;;;;;;;16.64;100.00;101541.31;4991389;28;20240;-76
2021/09/03 07:49:18;;;;;;;15.57;9.40;;;;;;;16.54;100.00;101534.31;4974771;28;20722;-74
2021/09/03 07:51:46;;;;;;;12.90;9.40;;;;;;;16.63;100.00;101534.22;4991196;28;20224;-78
2021/09/03 07:54:16;;;;;;;14.13;9.10;;;;;;;16.59;100.00;101538.66;4959843;28;20182;-77
2021/09/03 07:56:44;;;;;;;11.38;8.63;;;;;;;16.93;100.00;101538.56;4994015;28;20220;-76
2021/09/03 07:59:12;;;;;;;13.30;8.75;;;;;;;16.89;100.00;101530.09;4962343;28;20749;-76
2021/09/03 08:01:38;;;;;;;12.88;7.80;;;;;;;16.92;100.00;101526.72;4994095;28;20216;-76
2021/09/03 08:04:04;;;;;;;12.10;8.30;;;;;;;16.62;100.00;101535.31;5010615;28;20188;-77
2021/09/03 08:06:32;;;;;;;12.75;8.07;;;;;;;17.18;100.00;101523.44;4978041;28;20609;-76
2021/09/03 08:08:58;;;;;;;12.02;8.30;;;;;;;17.12;100.00;101523.75;5016494;28;20581;-78
2021/09/03 08:11:23;;;;;;;11.98;8.25;;;;;;;17.30;100.00;101528.50;5013217;28;20231;-78
2021/09/03 08:13:51;;;;;;;12.15;6.82;;;;;;;16.98;100.00;101526.41;4975628;28;20659;-77
2021/09/03 08:16:19;;;;;;;9.77;7.35;;;;;;;17.29;100.00;101515.84;5009582;28;20229;-78
2021/09/03 08:18:49;;;;;;;11.23;7.32;;;;;;;17.36;100.00;101528.13;5008529;28;20279;-78
2021/09/03 08:21:15;;;;;;;10.48;7.00;;;;;;;17.42;100.00;101516.78;5011841;28;20279;-78
2021/09/03 08:23:40;;;;;;;13.20;7.07;;;;;;;17.05;100.00;101515.03;4996108;28;20201;-76
2021/09/03 08:26:14;;;;;;;10.30;7.07;;;;;;;17.30;100.00;101518.31;4999260;28;20224;-77
2021/09/03 08:28:39;;;;;;;12.65;7.30;;;;;;;17.27;100.00;101515.34;5011803;28;20691;-77
2021/09/03 08:31:07;;;;;;;9.45;6.85;;;;;;;17.37;100.00;101516.03;5012992;28;20232;-75
2021/09/03 08:33:33;;;;;;;11.38;7.13;;;;;;;17.45;100.00;101516.19;4973049;28;20213;-78
2021/09/03 08:36:01;;;;;;;9.57;6.57;;;;;;;17.55;100.00;101517.97;5006593;28;20227;-77
2021/09/03 08:38:26;;;;;;;10.10;6.40;;;;;;;17.63;100.00;101518.09;5029904;28;20197;-76
2021/09/03 08:40:57;;;;;;;9.85;6.50;;;;;;;17.70;100.00;101521.31;5014155;28;20216;-77
2021/09/03 08:43:23;;;;;;;11.18;6.40;;;;;;;17.84;100.00;101519.44;4972414;28;20189;-77
2021/09/03 08:45:48;;;;;;;11.73;7.65;;;;;;;17.97;100.00;101518.69;5032284;28;20240;-79
2021/09/03 08:48:20;;;;;;;11.02;7.13;;;;;;;18.26;100.00;101515.47;4979556;28;20738;-79
2021/09/03 08:50:47;;;;;;;11.73;7.78;;;;;;;18.13;100.00;101518.16;4995174;28;20217;-76
2021/09/03 08:53:19;;;;;;;9.25;7.15;;;;;;;18.49;100.00;101517.22;4967113;28;20662;-76
2021/09/03 08:55:46;;;;;;;12.00;6.95;;;;;;;18.57;100.00;101508.25;4947306;28;20687;-76
2021/09/03 08:58:14;;;;;;;9.68;6.47;;;;;;;18.40;100.00;101512.72;4952337;28;20233;-74
2021/09/03 09:00:43;;;;;;;12.70;7.32;;;;;;;18.65;100.00;101511.13;5011174;28;20695;-76
2021/09/03 09:03:10;;;;;;;12.35;7.18;;;;;;;18.49;100.00;101514.47;5015263;28;20181;-77
2021/09/03 09:05:59;;;;;;;13.43;7.13;;;;;;;18.96;100.00;101512.19;4982744;28;20220;-77
2021/09/03 09:08:26;;;;;;;12.30;7.47;;;;;;;18.74;100.00;101511.25;4982576;28;20282;-78
2021/09/03 09:11:00;;;;;;;11.43;7.47;;;;;;;18.83;100.00;101509.41;4998768;28;20713;-76
2021/09/03 09:13:35;;;;;;;11.75;7.20;;;;;;;18.77;100.00;101507.88;4972030;28;20670;-77
2021/09/03 09:16:13;;;;;;;8.93;7.05;;;;;;;18.97;100.00;101509.16;4997686;28;20595;-77
2021/09/03 09:18:49;;;;;;;11.73;7.40;;;;;;;18.82;100.00;101505.03;5013814;28;20694;-77
2021/09/03 09:21:28;;;;;;;11.73;6.95;;;;;;;18.93;100.00;101508.09;5013560;28;20643;-77
2021/09/03 09:23:54;;;;;;;12.23;7.15;;;;;;;19.28;100.00;101510.97;4983539;28;20685;-76
2021/09/03 09:26:22;;;;;;;8.88;6.70;;;;;;;19.09;100.00;101506.69;5013557;28;20321;-78
2021/09/03 09:28:50;;;;;;;11.23;6.88;;;;;;;18.58;100.00;101507.16;4977485;28;20601;-76
2021/09/03 09:31:30;;;;;;;11.75;6.72;;;;;;;18.81;100.00;101503.38;4978187;28;20240;-77
2021/09/03 09:33:57;;;;;;;11.27;6.60;;;;;;;18.89;100.00;101509.00;4981489;28;20803;-77
2021/09/03 09:36:23;;;;;;;12.82;7.10;;;;;;;19.17;100.00;101507.91;5014270;28;20220;-76
2021/09/03 09:38:48;;;;;;;12.48;7.18;;;;;;;19.32;100.00;101500.94;5000205;28;20198;-78
2021/09/03 09:41:20;;;;;;;13.05;6.93;;;;;;;19.57;100.00;101507.84;4991177;28;20215;-78
2021/09/03 09:43:51;;;;;;;11.60;6.75;;;;;;;19.66;100.00;101497.69;4998577;28;20177;-75
2021/09/03 09:46:24;;;;;;;9.68;6.90;;;;;;;19.57;100.00;101505.06;5016011;28;20233;-77
2021/09/03 09:49:00;;;;;;;10.70;6.45;;;;;;;19.18;100.00;101501.28;5014638;28;20287;-77
2021/09/03 09:51:42;;;;;;;10.32;6.38;;;;;;;19.13;100.00;101507.69;4997127;28;20263;-76
2021/09/03 09:54:21;;;;;;;10.90;6.90;;;;;;;19.37;100.00;101498.06;4999075;28;20189;-79
2021/09/03 09:56:59;;;;;;;11.68;7.38;;;;;;;19.43;100.00;101490.50;4996857;28;20220;-77
2021/09/03 09:59:26;;;;;;;11.32;6.25;;;;;;;19.56;100.00;101496.00;4997336;28;20228;-78
2021/09/03 10:01:56;;;;;;;10.82;7.43;;;;;;;19.05;100.00;101493.84;4997372;28;20710;-75
2021/09/03 10:04:26;;;;;;;14.35;7.50;;;;;;;19.23;100.00;101485.47;5010073;28;20568;-77
2021/09/03 10:06:55;;;;;;;11.85;7.20;;;;;;;19.63;100.00;101493.59;4946066;28;20225;-78
2021/09/03 10:09:25;;;;;;;13.23;7.43;;;;;;;19.41;100.00;101481.72;5002563;28;20213;-76
2021/09/03 10:11:53;;;;;;;14.32;7.35;;;;;;;19.08;100.00;101483.03;4980652;28;20217;-76
2021/09/03 10:14:21;;;;;;;12.45;7.40;;;;;;;19.09;100.00;101479.16;5012731;28;20181;-75
2021/09/03 10:16:50;;;;;;;12.98;7.25;;;;;;;19.08;100.00;101473.94;4996275;28;20244;-75
2021/09/03 10:19:42;;;;;;;10.98;7.47;;;;;;;18.59;100.00;101475.78;4963469;28;20220;-77
2021/09/03 10:22:12;;;;;;;13.10;6.95;;;;;;;19.33;100.00;101472.25;4996660;28;20229;-78
2021/09/03 10:24:44;;;;;;;15.02;7.88;;;;;;;19.26;100.00;101462.78;5018041;28;20560;-75
2021/09/03 10:27:13;;;;;;;11.82;6.80;;;;;;;19.31;100.00;101465.44;5000576;28;20224;-76
2021/09/03 10:29:46;;;;;;;12.35;7.43;;;;;;;19.64;100.00;101458.59;4999431;28;20220;-77
2021/09/03 10:32:21;;;;;;;11.07;7.13;;;;;;;19.60;100.00;101449.31;5001851;28;20225;-78
2021/09/03 10:34:54;;;;;;;13.40;6.97;;;;;;;19.80;100.00;101447.69;5000657;28;20185;-78
2021/09/03 10:37:23;;;;;;;13.27;7.00;;;;;;;20.13;100.00;101438.06;4966266;28;20219;-77
2021/09/03 10:40:02;;;;;;;11.13;6.55;;;;;;;19.78;100.00;101440.88;5004318;28;20188;-77
2021/09/03 10:45:09;;;;;;;12.13;6.65;;;;;;;20.06;100.00;101429.41;5014307;28;20658;-76
2021/09/03 10:47:38;;;;;;;11.98;6.57;;;;;;;20.20;100.00;101436.47;4979762;28;20232;-77
2021/09/03 10:50:09;;;;;;;10.88;6.85;;;;;;;20.09;100.00;101435.09;5025818;28;20224;-77
2021/09/03 10:52:40;;;;;;;11.18;6.60;;;;;;;20.46;100.00;101435.44;5019388;28;20182;-76
2021/09/03 10:55:13;;;;;;;10.70;7.00;;;;;;;20.26;100.00;101435.19;4993521;28;20189;-79
2021/09/03 10:57:58;;;;;;;9.45;6.53;;;;;;;20.63;100.00;101434.75;4990725;28;20271;-77
2021/09/03 11:00:23;;;;;;;10.60;6.97;;;;;;;20.73;100.00;101429.75;4995499;28;20236;-74
2021/09/03 11:02:49;;;;;;;10.98;6.57;;;;;;;20.56;100.00;101428.81;5006527;28;20176;-74
2021/09/03 11:05:14;;;;;;;11.88;6.28;;;;;;;20.84;100.00;101420.00;5006820;28;20200;-76
2021/09/03 11:07:46;;;;;;;12.15;6.85;;;;;;;20.98;100.00;101417.94;5037991;28;20220;-77
2021/09/03 11:10:21;;;;;;;13.82;7.38;;;;;;;21.07;100.00;101419.56;5020089;28;20208;-79
2021/09/03 11:12:50;;;;;;;10.15;6.97;;;;;;;21.27;100.00;101407.91;4988089;28;20700;-74
2021/09/03 11:15:23;;;;;;;13.70;6.80;;;;;;;21.02;98.60;101405.09;5035188;28;20169;-77
2021/09/03 11:17:51;;;;;;;12.60;7.00;;;;;;;21.49;97.27;101403.06;5005847;28;20580;-76
2021/09/03 11:20:20;;;;;;;12.43;6.72;;;;;;;21.37;95.05;101408.41;5002785;28;20185;-78